sensor_id;sensor_type;location;lat;lon;timestamp;pressure;altitude;pressure_sealevel;temperature;humidity
46722;BME280;32455;43.430;23.136;2022-12-18T00:02:27;98990.25;;;4.55;100.00
46722;BME280;32455;43.430;23.136;2022-12-18T00:05:12;98995.06;;;4.59;100.00
46722;BME280;32455;43.430;23.136;2022-12-18T00:07:58;99002.72;;;4.54;100.00
46722;BME280;32455;43.430;23.136;2022-12-18T00:10:44;99015.69;;;4.57;100.00
46722;BME280;32455;43.430;23.136;2022-12-18T00:13:30;98999.19;;;4.53;100.00
46722;BME280;32455;43.430;23.136;2022-12-18T00:16:18;99012.38;;;4.55;100.00
46722;BME280;32455;43.430;23.136;2022-12-18T00:19:10;99032.16;;;4.61;100.00
46722;BME280;32455;43.430;23.136;2022-12-18T00:21:55;99040.34;;;4.84;100.00
46722;BME280;32455;43.430;23.136;2022-12-18T00:24:40;99055.00;;;4.96;100.00
46722;BME280;32455;43.430;23.136;2022-12-18T00:27:25;99067.47;;;4.79;100.00
46722;BME280;32455;43.430;23.136;2022-12-18T00:30:12;99064.78;;;4.79;100.00
46722;BME280;32455;43.430;23.136;2022-12-18T00:32:57;99064.28;;;4.59;100.00
46722;BME280;32455;43.430;23.136;2022-12-18T00:35:43;99060.59;;;4.52;100.00
46722;BME280;32455;43.430;23.136;2022-12-18T00:38:28;99073.13;;;4.76;100.00
46722;BME280;32455;43.430;23.136;2022-12-18T00:41:16;99067.78;;;4.68;100.00
46722;BME280;32455;43.430;23.136;2022-12-18T00:44:20;99079.59;;;4.73;100.00
46722;BME280;32455;43.430;23.136;2022-12-18T00:47:05;99069.25;;;4.62;100.00
46722;BME280;32455;43.430;23.136;2022-12-18T00:49:51;99089.69;;;4.53;100.00
46722;BME280;32455;43.430;23.136;2022-12-18T00:52:37;99075.94;;;4.74;100.00
46722;BME280;32455;43.430;23.136;2022-12-18T00:55:22;99068.78;;;4.67;100.00
46722;BME280;32455;43.430;23.136;2022-12-18T00:58:10;99090.44;;;4.72;100.00
46722;BME280;32455;43.430;23.136;2022-12-18T01:00:55;99096.06;;;4.69;100.00
46722;BME280;32455;43.430;23.136;2022-12-18T01:03:39;99096.31;;;4.41;100.00
46722;BME280;32455;43.430;23.136;2022-12-18T01:06:24;99092.84;;;4.49;100.00
46722;BME280;32455;43.430;23.136;2022-12-18T01:09:10;99115.81;;;4.50;100.00
46722;BME280;32455;43.430;23.136;2022-12-18T01:11:55;99111.88;;;4.28;100.00
46722;BME280;32455;43.430;23.136;2022-12-18T01:14:40;99111.88;;;4.28;100.00
46722;BME280;32455;43.430;23.136;2022-12-18T01:17:26;99116.31;;;4.19;100.00
46722;BME280;32455;43.430;23.136;2022-12-18T01:20:12;99118.78;;;4.13;100.00
46722;BME280;32455;43.430;23.136;2022-12-18T01:22:57;99116.00;;;4.22;100.00
46722;BME280;32455;43.430;23.136;2022-12-18T01:25:43;99116.88;;;4.31;100.00
46722;BME280;32455;43.430;23.136;2022-12-18T01:28:28;99098.69;;;4.18;100.00
46722;BME280;32455;43.430;23.136;2022-12-18T01:31:28;99099.09;;;4.32;100.00
46722;BME280;32455;43.430;23.136;2022-12-18T01:34:15;99114.09;;;4.33;100.00
46722;BME280;32455;43.430;23.136;2022-12-18T01:37:02;99113.91;;;4.34;100.00
46722;BME280;32455;43.430;23.136;2022-12-18T01:39:48;99109.97;;;4.46;100.00
46722;BME280;32455;43.430;23.136;2022-12-18T01:42:35;99105.78;;;4.44;100.00
46722;BME280;32455;43.430;23.136;2022-12-18T01:45:30;99121.75;;;4.44;100.00
46722;BME280;32455;43.430;23.136;2022-12-18T01:48:16;99129.78;;;4.52;100.00
46722;BME280;32455;43.430;23.136;2022-12-18T01:51:02;99116.31;;;4.45;100.00
46722;BME280;32455;43.430;23.136;2022-12-18T01:53:48;99131.25;;;4.46;100.00
46722;BME280;32455;43.430;23.136;2022-12-18T01:56:33;99104.28;;;4.33;100.00
46722;BME280;32455;43.430;23.136;2022-12-18T01:59:19;99100.09;;;4.31;100.00
46722;BME280;32455;43.430;23.136;2022-12-18T02:02:06;99128.59;;;4.46;100.00
46722;BME280;32455;43.430;23.136;2022-12-18T02:04:52;99124.78;;;4.49;100.00
46722;BME280;32455;43.430;23.136;2022-12-18T02:10:39;99141.88;;;4.38;100.00
46722;BME280;32455;43.430;23.136;2022-12-18T02:16:52;99166.72;;;4.21;100.00
46722;BME280;32455;43.430;23.136;2022-12-18T02:28:27;99179.84;;;3.96;100.00
46722;BME280;32455;43.430;23.136;2022-12-18T02:31:18;99172.19;;;3.93;100.00
46722;BME280;32455;43.430;23.136;2022-12-18T02:34:08;99171.22;;;3.94;100.00
46722;BME280;32455;43.430;23.136;2022-12-18T02:36:56;99163.22;;;3.94;100.00
46722;BME280;32455;43.430;23.136;2022-12-18T02:39:44;99168.63;;;3.85;100.00
46722;BME280;32455;43.430;23.136;2022-12-18T02:42:31;99179.38;;;4.01;100.00
46722;BME280;32455;43.430;23.136;2022-12-18T02:45:17;99154.78;;;3.99;100.00
46722;BME280;32455;43.430;23.136;2022-12-18T02:48:03;99160.66;;;4.11;100.00
46722;BME280;32455;43.430;23.136;2022-12-18T02:54:06;99183.25;;;4.07;100.00
46722;BME280;32455;43.430;23.136;2022-12-18T02:57:01;99166.25;;;3.99;100.00
46722;BME280;32455;43.430;23.136;2022-12-18T03:00:20;99180.50;;;4.16;100.00
46722;BME280;32455;43.430;23.136;2022-12-18T03:03:14;99178.97;;;4.14;100.00
46722;BME280;32455;43.430;23.136;2022-12-18T03:06:10;99191.50;;;3.95;100.00
46722;BME280;32455;43.430;23.136;2022-12-18T03:09:00;99201.44;;;4.19;100.00
46722;BME280;32455;43.430;23.136;2022-12-18T03:11:56;99204.91;;;4.12;100.00
46722;BME280;32455;43.430;23.136;2022-12-18T03:17:56;99222.34;;;4.14;100.00
46722;BME280;32455;43.430;23.136;2022-12-18T03:20:45;99224.50;;;4.11;100.00
46722;BME280;32455;43.430;23.136;2022-12-18T03:23:37;99235.53;;;3.98;100.00
46722;BME280;32455;43.430;23.136;2022-12-18T03:26:26;99229.31;;;3.89;100.00
46722;BME280;32455;43.430;23.136;2022-12-18T03:29:21;99225.28;;;3.85;100.00
46722;BME280;32455;43.430;23.136;2022-12-18T03:32:15;99227.66;;;3.88;100.00
46722;BME280;32455;43.430;23.136;2022-12-18T03:35:04;99241.25;;;4.03;100.00
46722;BME280;32455;43.430;23.136;2022-12-18T03:37:50;99214.28;;;3.80;100.00
46722;BME280;32455;43.430;23.136;2022-12-18T03:43:36;99243.06;;;4.03;100.00
46722;BME280;32455;43.430;23.136;2022-12-18T03:46:28;99243.66;;;3.96;100.00
46722;BME280;32455;43.430;23.136;2022-12-18T03:49:25;99240.88;;;3.80;100.00
46722;BME280;32455;43.430;23.136;2022-12-18T03:52:44;99254.00;;;3.99;100.00
46722;BME280;32455;43.430;23.136;2022-12-18T03:55:34;99241.84;;;3.97;100.00
46722;BME280;32455;43.430;23.136;2022-12-18T03:58:23;99241.56;;;3.82;100.00
46722;BME280;32455;43.430;23.136;2022-12-18T04:01:13;99237.47;;;3.52;100.00
46722;BME280;32455;43.430;23.136;2022-12-18T04:04:00;99233.38;;;3.58;100.00
46722;BME280;32455;43.430;23.136;2022-12-18T04:06:48;99226.78;;;3.44;100.00
46722;BME280;32455;43.430;23.136;2022-12-18T04:09:36;99252.44;;;3.53;100.00
46722;BME280;32455;43.430;23.136;2022-12-18T04:12:26;99236.69;;;3.24;100.00
46722;BME280;32455;43.430;23.136;2022-12-18T04:15:14;99268.00;;;3.20;100.00
46722;BME280;32455;43.430;23.136;2022-12-18T04:18:00;99255.81;;;3.28;100.00
46722;BME280;32455;43.430;23.136;2022-12-18T04:20:45;99262.72;;;3.38;100.00
46722;BME280;32455;43.430;23.136;2022-12-18T04:23:30;99268.06;;;3.11;100.00
46722;BME280;32455;43.430;23.136;2022-12-18T04:26:16;99245.59;;;3.05;100.00
46722;BME280;32455;43.430;23.136;2022-12-18T04:29:01;99279.69;;;3.10;100.00
46722;BME280;32455;43.430;23.136;2022-12-18T04:31:46;99261.38;;;3.07;100.00
46722;BME280;32455;43.430;23.136;2022-12-18T04:34:32;99267.66;;;3.33;100.00
46722;BME280;32455;43.430;23.136;2022-12-18T04:37:19;99271.50;;;3.66;100.00
46722;BME280;32455;43.430;23.136;2022-12-18T04:40:04;99264.88;;;3.70;100.00
46722;BME280;32455;43.430;23.136;2022-12-18T04:42:51;99274.44;;;3.63;100.00
46722;BME280;32455;43.430;23.136;2022-12-18T04:45:37;99259.84;;;3.49;100.00
46722;BME280;32455;43.430;23.136;2022-12-18T04:48:22;99274.31;;;3.65;100.00
46722;BME280;32455;43.430;23.136;2022-12-18T04:51:08;99294.97;;;3.71;100.00
46722;BME280;32455;43.430;23.136;2022-12-18T04:53:53;99290.56;;;3.80;100.00
46722;BME280;32455;43.430;23.136;2022-12-18T04:56:39;99312.13;;;3.94;100.00
46722;BME280;32455;43.430;23.136;2022-12-18T04:59:25;99291.63;;;3.69;100.00
46722;BME280;32455;43.430;23.136;2022-12-18T05:02:11;99292.28;;;3.53;100.00
46722;BME280;32455;43.430;23.136;2022-12-18T05:04:56;99315.13;;;3.64;100.00
46722;BME280;32455;43.430;23.136;2022-12-18T05:07:41;99324.66;;;3.84;100.00
46722;BME280;32455;43.430;23.136;2022-12-18T05:10:27;99300.09;;;3.72;100.00
46722;BME280;32455;43.430;23.136;2022-12-18T05:13:12;99317.88;;;3.72;100.00
46722;BME280;32455;43.430;23.136;2022-12-18T05:15:58;99328.75;;;3.61;100.00
46722;BME280;32455;43.430;23.136;2022-12-18T05:18:44;99334.19;;;3.59;100.00
46722;BME280;32455;43.430;23.136;2022-12-18T05:21:30;99317.41;;;3.59;100.00
46722;BME280;32455;43.430;23.136;2022-12-18T05:24:16;99309.22;;;3.52;100.00
46722;BME280;32455;43.430;23.136;2022-12-18T05:27:02;99339.22;;;3.62;100.00
46722;BME280;32455;43.430;23.136;2022-12-18T05:29:48;99329.72;;;3.60;100.00
46722;BME280;32455;43.430;23.136;2022-12-18T05:32:33;99332.31;;;3.69;100.00
46722;BME280;32455;43.430;23.136;2022-12-18T05:35:19;99314.38;;;3.54;100.00
46722;BME280;32455;43.430;23.136;2022-12-18T05:38:04;99340.31;;;3.69;100.00
46722;BME280;32455;43.430;23.136;2022-12-18T05:40:51;99351.78;;;3.70;100.00
46722;BME280;32455;43.430;23.136;2022-12-18T05:43:37;99360.88;;;3.67;100.00
46722;BME280;32455;43.430;23.136;2022-12-18T05:46:23;99348.41;;;3.68;100.00
46722;BME280;32455;43.430;23.136;2022-12-18T05:49:09;99370.91;;;3.73;100.00
46722;BME280;32455;43.430;23.136;2022-12-18T05:51:54;99371.75;;;3.74;100.00
46722;BME280;32455;43.430;23.136;2022-12-18T05:54:40;99375.72;;;3.88;100.00
46722;BME280;32455;43.430;23.136;2022-12-18T05:57:25;99379.59;;;3.93;100.00
46722;BME280;32455;43.430;23.136;2022-12-18T06:00:11;99376.91;;;3.93;100.00
46722;BME280;32455;43.430;23.136;2022-12-18T06:02:58;99384.16;;;4.01;100.00
46722;BME280;32455;43.430;23.136;2022-12-18T06:05:45;99383.25;;;4.10;100.00
46722;BME280;32455;43.430;23.136;2022-12-18T06:08:30;99375.97;;;3.94;100.00
46722;BME280;32455;43.430;23.136;2022-12-18T06:11:21;99395.34;;;4.05;100.00
46722;BME280;32455;43.430;23.136;2022-12-18T06:14:07;99385.16;;;3.72;100.00
46722;BME280;32455;43.430;23.136;2022-12-18T06:16:52;99394.22;;;3.80;100.00
46722;BME280;32455;43.430;23.136;2022-12-18T06:19:38;99399.63;;;3.88;100.00
46722;BME280;32455;43.430;23.136;2022-12-18T06:22:25;99392.22;;;3.91;100.00
46722;BME280;32455;43.430;23.136;2022-12-18T06:25:10;99382.88;;;4.05;100.00
46722;BME280;32455;43.430;23.136;2022-12-18T06:27:55;99390.31;;;4.19;100.00
46722;BME280;32455;43.430;23.136;2022-12-18T06:30:45;99412.81;;;4.43;100.00
46722;BME280;32455;43.430;23.136;2022-12-18T06:33:31;99425.13;;;4.26;100.00
46722;BME280;32455;43.430;23.136;2022-12-18T06:36:16;99433.88;;;4.18;100.00
46722;BME280;32455;43.430;23.136;2022-12-18T06:39:02;99421.53;;;3.99;100.00
46722;BME280;32455;43.430;23.136;2022-12-18T06:41:48;99428.72;;;3.89;100.00
46722;BME280;32455;43.430;23.136;2022-12-18T06:44:33;99433.94;;;4.09;100.00
46722;BME280;32455;43.430;23.136;2022-12-18T06:47:19;99423.00;;;4.12;100.00
46722;BME280;32455;43.430;23.136;2022-12-18T06:50:04;99441.63;;;4.47;100.00
46722;BME280;32455;43.430;23.136;2022-12-18T06:52:50;99443.16;;;4.50;100.00
46722;BME280;32455;43.430;23.136;2022-12-18T06:55:35;99438.59;;;4.60;100.00
46722;BME280;32455;43.430;23.136;2022-12-18T06:58:20;99449.47;;;4.49;100.00
46722;BME280;32455;43.430;23.136;2022-12-18T07:01:08;99425.06;;;4.36;100.00
46722;BME280;32455;43.430;23.136;2022-12-18T07:03:56;99467.59;;;4.45;100.00
46722;BME280;32455;43.430;23.136;2022-12-18T07:06:42;99457.06;;;4.62;100.00
46722;BME280;32455;43.430;23.136;2022-12-18T07:09:28;99465.75;;;4.64;100.00
46722;BME280;32455;43.430;23.136;2022-12-18T07:12:13;99454.72;;;4.59;100.00
46722;BME280;32455;43.430;23.136;2022-12-18T07:14:59;99480.09;;;4.53;100.00
46722;BME280;32455;43.430;23.136;2022-12-18T07:17:45;99458.66;;;4.37;100.00
46722;BME280;32455;43.430;23.136;2022-12-18T07:20:30;99470.25;;;4.45;100.00
46722;BME280;32455;43.430;23.136;2022-12-18T07:23:15;99474.66;;;4.55;100.00
46722;BME280;32455;43.430;23.136;2022-12-18T07:26:05;99468.88;;;4.59;100.00
46722;BME280;32455;43.430;23.136;2022-12-18T07:28:54;99473.47;;;4.75;100.00
46722;BME280;32455;43.430;23.136;2022-12-18T07:31:40;99474.66;;;4.72;100.00
46722;BME280;32455;43.430;23.136;2022-12-18T07:34:26;99466.94;;;4.69;100.00
46722;BME280;32455;43.430;23.136;2022-12-18T07:37:12;99473.47;;;4.75;100.00
46722;BME280;32455;43.430;23.136;2022-12-18T07:39:57;99474.28;;;4.67;100.00
46722;BME280;32455;43.430;23.136;2022-12-18T07:42:43;99474.00;;;4.78;100.00
46722;BME280;32455;43.430;23.136;2022-12-18T07:45:28;99478.81;;;4.93;100.00
46722;BME280;32455;43.430;23.136;2022-12-18T07:48:14;99495.53;;;5.03;100.00
46722;BME280;32455;43.430;23.136;2022-12-18T07:51:04;99496.25;;;5.13;100.00
46722;BME280;32455;43.430;23.136;2022-12-18T07:53:49;99493.00;;;5.19;100.00
46722;BME280;32455;43.430;23.136;2022-12-18T07:56:34;99504.66;;;5.18;100.00
46722;BME280;32455;43.430;23.136;2022-12-18T07:59:19;99506.19;;;5.03;100.00
46722;BME280;32455;43.430;23.136;2022-12-18T08:02:05;99507.63;;;5.15;100.00
46722;BME280;32455;43.430;23.136;2022-12-18T08:04:50;99513.38;;;5.28;100.00
46722;BME280;32455;43.430;23.136;2022-12-18T08:07:35;99527.72;;;5.53;100.00
46722;BME280;32455;43.430;23.136;2022-12-18T08:10:21;99527.94;;;5.68;100.00
46722;BME280;32455;43.430;23.136;2022-12-18T08:13:07;99522.13;;;5.73;100.00
46722;BME280;32455;43.430;23.136;2022-12-18T08:16:00;99532.53;;;5.84;100.00
46722;BME280;32455;43.430;23.136;2022-12-18T08:18:45;99526.22;;;5.85;100.00
46722;BME280;32455;43.430;23.136;2022-12-18T08:21:31;99527.81;;;5.96;100.00
46722;BME280;32455;43.430;23.136;2022-12-18T08:24:17;99524.81;;;5.99;100.00
46722;BME280;32455;43.430;23.136;2022-12-18T08:27:02;99522.47;;;5.96;100.00
46722;BME280;32455;43.430;23.136;2022-12-18T08:29:48;99538.19;;;6.07;100.00
46722;BME280;32455;43.430;23.136;2022-12-18T08:32:33;99543.22;;;6.10;100.00
46722;BME280;32455;43.430;23.136;2022-12-18T08:35:18;99546.53;;;6.04;100.00
46722;BME280;32455;43.430;23.136;2022-12-18T08:38:04;99541.19;;;6.12;100.00
46722;BME280;32455;43.430;23.136;2022-12-18T08:40:49;99546.19;;;6.07;100.00
46722;BME280;32455;43.430;23.136;2022-12-18T08:43:34;99545.56;;;6.13;100.00
46722;BME280;32455;43.430;23.136;2022-12-18T08:46:40;99551.25;;;6.18;100.00
46722;BME280;32455;43.430;23.136;2022-12-18T08:49:26;99549.34;;;6.02;100.00
46722;BME280;32455;43.430;23.136;2022-12-18T08:52:16;99552.41;;;5.90;100.00
46722;BME280;32455;43.430;23.136;2022-12-18T08:55:01;99539.31;;;5.96;100.00
46722;BME280;32455;43.430;23.136;2022-12-18T08:57:50;99536.16;;;6.01;100.00
46722;BME280;32455;43.430;23.136;2022-12-18T09:00:35;99530.25;;;6.23;100.00
46722;BME280;32455;43.430;23.136;2022-12-18T09:03:21;99542.25;;;6.19;100.00
46722;BME280;32455;43.430;23.136;2022-12-18T09:06:08;99543.41;;;6.25;100.00
46722;BME280;32455;43.430;23.136;2022-12-18T09:08:53;99540.53;;;6.10;100.00
46722;BME280;32455;43.430;23.136;2022-12-18T09:11:39;99545.22;;;6.16;100.00
46722;BME280;32455;43.430;23.136;2022-12-18T09:14:25;99548.97;;;6.32;100.00
46722;BME280;32455;43.430;23.136;2022-12-18T09:17:10;99548.44;;;6.28;100.00
46722;BME280;32455;43.430;23.136;2022-12-18T09:19:56;99551.28;;;6.26;100.00
46722;BME280;32455;43.430;23.136;2022-12-18T09:22:41;99546.13;;;6.33;100.00
46722;BME280;32455;43.430;23.136;2022-12-18T09:25:26;99553.16;;;6.34;100.00
46722;BME280;32455;43.430;23.136;2022-12-18T09:28:18;99552.47;;;6.32;100.00
46722;BME280;32455;43.430;23.136;2022-12-18T09:31:06;99556.66;;;6.35;100.00
46722;BME280;32455;43.430;23.136;2022-12-18T09:33:55;99545.25;;;6.24;100.00
46722;BME280;32455;43.430;23.136;2022-12-18T09:36:40;99529.41;;;6.23;100.00
46722;BME280;32455;43.430;23.136;2022-12-18T09:39:26;99551.31;;;6.35;100.00
46722;BME280;32455;43.430;23.136;2022-12-18T09:42:21;99556.66;;;6.35;100.00
46722;BME280;32455;43.430;23.136;2022-12-18T09:45:12;99560.31;;;6.34;100.00
46722;BME280;32455;43.430;23.136;2022-12-18T09:47:59;99537.59;;;6.21;100.00
46722;BME280;32455;43.430;23.136;2022-12-18T09:50:46;99558.66;;;6.41;100.00
46722;BME280;32455;43.430;23.136;2022-12-18T09:53:35;99561.41;;;6.65;100.00
46722;BME280;32455;43.430;23.136;2022-12-18T09:56:23;99564.22;;;6.56;98.65
46722;BME280;32455;43.430;23.136;2022-12-18T09:59:35;99557.00;;;6.40;98.23
46722;BME280;32455;43.430;23.136;2022-12-18T10:02:25;99554.56;;;6.63;100.00
46722;BME280;32455;43.430;23.136;2022-12-18T10:05:20;99557.34;;;6.45;99.23
46722;BME280;32455;43.430;23.136;2022-12-18T10:08:22;99547.56;;;6.62;100.00
46722;BME280;32455;43.430;23.136;2022-12-18T10:17:57;99570.63;;;6.79;94.95
46722;BME280;32455;43.430;23.136;2022-12-18T10:20:51;99571.97;;;6.91;95.77
46722;BME280;32455;43.430;23.136;2022-12-18T10:23:45;99582.81;;;6.82;91.94
46722;BME280;32455;43.430;23.136;2022-12-18T10:26:35;99572.97;;;6.82;90.35
46722;BME280;32455;43.430;23.136;2022-12-18T10:29:20;99570.81;;;6.86;88.73
46722;BME280;32455;43.430;23.136;2022-12-18T10:32:07;99573.16;;;6.97;89.75
46722;BME280;32455;43.430;23.136;2022-12-18T10:34:57;99573.81;;;6.83;86.69
46722;BME280;32455;43.430;23.136;2022-12-18T10:40:59;99585.38;;;7.08;88.04
46722;BME280;32455;43.430;23.136;2022-12-18T10:43:45;99578.34;;;6.98;88.49
46722;BME280;32455;43.430;23.136;2022-12-18T10:46:30;99572.69;;;7.18;88.41
46722;BME280;32455;43.430;23.136;2022-12-18T10:49:23;99582.72;;;7.16;85.67
46722;BME280;32455;43.430;23.136;2022-12-18T10:52:21;99577.69;;;7.05;88.67
46722;BME280;32455;43.430;23.136;2022-12-18T10:55:16;99562.16;;;7.00;84.60
46722;BME280;32455;43.430;23.136;2022-12-18T11:01:16;99574.00;;;7.14;85.59
46722;BME280;32455;43.430;23.136;2022-12-18T11:04:08;99572.69;;;7.18;84.70
46722;BME280;32455;43.430;23.136;2022-12-18T11:07:02;99577.84;;;7.27;85.30
46722;BME280;32455;43.430;23.136;2022-12-18T11:10:00;99571.69;;;7.35;81.18
46722;BME280;32455;43.430;23.136;2022-12-18T11:12:47;99564.16;;;7.31;79.41
46722;BME280;32455;43.430;23.136;2022-12-18T11:15:33;99572.34;;;7.37;82.22
46722;BME280;32455;43.430;23.136;2022-12-18T11:18:30;99570.34;;;7.31;82.23
46722;BME280;32455;43.430;23.136;2022-12-18T11:21:16;99569.31;;;7.32;80.35
46722;BME280;32455;43.430;23.136;2022-12-18T11:24:02;99577.53;;;7.39;78.82
46722;BME280;32455;43.430;23.136;2022-12-18T11:26:48;99564.34;;;7.37;83.89
46722;BME280;32455;43.430;23.136;2022-12-18T11:29:39;99571.69;;;7.35;79.38
46722;BME280;32455;43.430;23.136;2022-12-18T11:32:34;99573.69;;;7.17;76.83
46722;BME280;32455;43.430;23.136;2022-12-18T11:38:26;99577.84;;;7.52;82.56
46722;BME280;32455;43.430;23.136;2022-12-18T11:41:21;99572.69;;;7.59;80.89
46722;BME280;32455;43.430;23.136;2022-12-18T11:44:54;99579.19;;;7.64;77.35
46722;BME280;32455;43.430;23.136;2022-12-18T11:51:12;99581.72;;;7.49;76.48
46722;BME280;32455;43.430;23.136;2022-12-18T11:54:00;99569.34;;;7.24;75.06
46722;BME280;32455;43.430;23.136;2022-12-18T12:00:16;99578.88;;;7.43;75.15
46722;BME280;32455;43.430;23.136;2022-12-18T12:03:22;99591.72;;;7.47;76.90
46722;BME280;32455;43.430;23.136;2022-12-18T12:13:19;99592.38;;;7.00;76.00
46722;BME280;32455;43.430;23.136;2022-12-18T12:16:22;99594.53;;;6.97;70.08
46722;BME280;32455;43.430;23.136;2022-12-18T12:19:29;99592.66;;;6.89;72.98
46722;BME280;32455;43.430;23.136;2022-12-18T12:25:44;99590.03;;;6.97;74.07
46722;BME280;32455;43.430;23.136;2022-12-18T12:40:59;99594.00;;;6.77;72.04
46722;BME280;32455;43.430;23.136;2022-12-18T12:43:47;99598.63;;;6.67;73.24
46722;BME280;32455;43.430;23.136;2022-12-18T12:46:38;99595.66;;;6.70;68.92
46722;BME280;32455;43.430;23.136;2022-12-18T12:49:29;99591.78;;;6.56;72.20
46722;BME280;32455;43.430;23.136;2022-12-18T12:52:37;99606.31;;;6.62;71.71
46722;BME280;32455;43.430;23.136;2022-12-18T12:55:27;99613.50;;;6.69;71.14
46722;BME280;32455;43.430;23.136;2022-12-18T12:58:44;99625.31;;;6.59;72.76
46722;BME280;32455;43.430;23.136;2022-12-18T13:05:00;99623.53;;;6.33;75.94
46722;BME280;32455;43.430;23.136;2022-12-18T13:07:56;99626.47;;;6.48;74.88
46722;BME280;32455;43.430;23.136;2022-12-18T13:10:43;99610.00;;;6.26;74.92
46722;BME280;32455;43.430;23.136;2022-12-18T13:13:51;99639.56;;;6.33;75.61
46722;BME280;32455;43.430;23.136;2022-12-18T13:16:38;99632.19;;;6.27;75.97
46722;BME280;32455;43.430;23.136;2022-12-18T13:19:25;99636.66;;;6.18;76.58
46722;BME280;32455;43.430;23.136;2022-12-18T13:22:27;99626.03;;;6.00;75.20
46722;BME280;32455;43.430;23.136;2022-12-18T13:25:44;99625.69;;;5.95;74.06
46722;BME280;32455;43.430;23.136;2022-12-18T13:34:29;99649.00;;;5.93;77.34
46722;BME280;32455;43.430;23.136;2022-12-18T13:37:41;99650.72;;;6.02;77.59
46722;BME280;32455;43.430;23.136;2022-12-18T13:43:40;99635.94;;;6.08;75.58
46722;BME280;32455;43.430;23.136;2022-12-18T13:46:29;99663.03;;;6.21;76.27
46722;BME280;32455;43.430;23.136;2022-12-18T13:49:40;99656.00;;;5.94;78.27
46722;BME280;32455;43.430;23.136;2022-12-18T13:52:37;99661.41;;;5.85;78.39
46722;BME280;32455;43.430;23.136;2022-12-18T13:55:24;99661.53;;;5.75;77.40
46722;BME280;32455;43.430;23.136;2022-12-18T13:58:11;99672.94;;;5.67;77.55
46722;BME280;32455;43.430;23.136;2022-12-18T14:00:57;99672.03;;;5.59;79.32
46722;BME280;32455;43.430;23.136;2022-12-18T14:03:44;99661.94;;;5.44;80.43
46722;BME280;32455;43.430;23.136;2022-12-18T14:06:29;99667.88;;;5.38;81.77
46722;BME280;32455;43.430;23.136;2022-12-18T14:09:26;99677.66;;;5.02;81.71
46722;BME280;32455;43.430;23.136;2022-12-18T14:12:17;99679.50;;;5.01;83.31
46722;BME280;32455;43.430;23.136;2022-12-18T14:21:21;99694.69;;;4.91;81.82
46722;BME280;32455;43.430;23.136;2022-12-18T14:24:20;99699.38;;;4.52;82.55
46722;BME280;32455;43.430;23.136;2022-12-18T14:27:24;99690.00;;;4.48;83.57
46722;BME280;32455;43.430;23.136;2022-12-18T14:30:32;99702.91;;;4.43;85.87
46722;BME280;32455;43.430;23.136;2022-12-18T14:33:18;99700.41;;;4.41;85.77
46722;BME280;32455;43.430;23.136;2022-12-18T14:36:05;99694.44;;;4.20;87.06
46722;BME280;32455;43.430;23.136;2022-12-18T14:38:58;99692.91;;;4.17;88.25
46722;BME280;32455;43.430;23.136;2022-12-18T14:41:44;99695.28;;;4.11;92.10
46722;BME280;32455;43.430;23.136;2022-12-18T14:44:29;99694.78;;;3.88;95.58
46722;BME280;32455;43.430;23.136;2022-12-18T14:47:16;99706.41;;;3.87;98.21
46722;BME280;32455;43.430;23.136;2022-12-18T14:50:02;99701.63;;;3.81;97.94
46722;BME280;32455;43.430;23.136;2022-12-18T14:52:48;99691.03;;;3.71;95.92
46722;BME280;32455;43.430;23.136;2022-12-18T14:55:34;99717.84;;;3.97;95.50
46722;BME280;32455;43.430;23.136;2022-12-18T14:58:20;99708.34;;;3.85;96.10
46722;BME280;32455;43.430;23.136;2022-12-18T15:01:06;99722.09;;;3.61;97.79
46722;BME280;32455;43.430;23.136;2022-12-18T15:03:53;99731.19;;;3.58;100.00
46722;BME280;32455;43.430;23.136;2022-12-18T15:06:39;99733.41;;;3.53;98.36
46722;BME280;32455;43.430;23.136;2022-12-18T15:09:27;99732.03;;;3.68;97.29
46722;BME280;32455;43.430;23.136;2022-12-18T15:12:49;99756.06;;;3.76;96.72
46722;BME280;32455;43.430;23.136;2022-12-18T15:18:33;99761.41;;;3.47;94.85
46722;BME280;32455;43.430;23.136;2022-12-18T15:21:20;99767.66;;;3.37;95.48
46722;BME280;32455;43.430;23.136;2022-12-18T15:24:22;99755.38;;;2.86;93.93
46722;BME280;32455;43.430;23.136;2022-12-18T15:27:37;99779.66;;;2.81;96.35
46722;BME280;32455;43.430;23.136;2022-12-18T15:30:24;99788.03;;;2.76;95.76
46722;BME280;32455;43.430;23.136;2022-12-18T15:33:23;99787.47;;;2.52;97.44
46722;BME280;32455;43.430;23.136;2022-12-18T15:36:12;99791.06;;;2.41;99.16
46722;BME280;32455;43.430;23.136;2022-12-18T15:38:58;99794.16;;;2.46;100.00
46722;BME280;32455;43.430;23.136;2022-12-18T15:41:43;99777.47;;;2.35;100.00
46722;BME280;32455;43.430;23.136;2022-12-18T15:44:49;99797.25;;;2.31;98.21
46722;BME280;32455;43.430;23.136;2022-12-18T15:47:35;99833.94;;;2.25;97.10
46722;BME280;32455;43.430;23.136;2022-12-18T15:50:21;99834.09;;;2.24;100.00
46722;BME280;32455;43.430;23.136;2022-12-18T15:53:08;99831.16;;;2.06;100.00
46722;BME280;32455;43.430;23.136;2022-12-18T15:55:54;99834.44;;;1.98;100.00
46722;BME280;32455;43.430;23.136;2022-12-18T15:59:00;99835.56;;;2.17;99.82
46722;BME280;32455;43.430;23.136;2022-12-18T16:01:48;99855.28;;;2.03;99.65
46722;BME280;32455;43.430;23.136;2022-12-18T16:04:33;99836.38;;;1.53;100.00
46722;BME280;32455;43.430;23.136;2022-12-18T16:07:20;99845.91;;;1.44;100.00
46722;BME280;32455;43.430;23.136;2022-12-18T16:10:07;99836.66;;;1.39;100.00
46722;BME280;32455;43.430;23.136;2022-12-18T16:12:52;99834.00;;;1.50;100.00
46722;BME280;32455;43.430;23.136;2022-12-18T16:15:38;99858.53;;;1.63;100.00
46722;BME280;32455;43.430;23.136;2022-12-18T16:18:24;99859.66;;;1.27;100.00
46722;BME280;32455;43.430;23.136;2022-12-18T16:21:09;99844.75;;;1.15;100.00